Amy C. Mc Allister — WCZ9520 — position and weather

sailwx.info

Track history (hours):
 
Tides and Currents Weather Stations Pressure Air Temp Water Temp Dewpoint Dewpoint Depression Visibility Wind Speed Wind Dir Waves Ship Positions

Amy C. Mc Allister

Owner: MC ALLISTER TOWING & TRANSPORTATION INC, NEW YORK, NY. More information available from US FCC via Universal Licensing System and Coast Guard Vessel Documentation Center.

Last reported at 2016-Jun-29 21:33 UTC. Time now 2016-Jun-29 22:01 UTC.
Position N 40°40' W 074°08'.

; draft 4.9 m.

Type: Towing. MMSI: 366995040.

Date/timePositionNaut miles runAvg speedWind from/ knotsBaromVisibWave heightAir tempDewpointWater temp
2016-Jun-29 21:33N 40°40' W 074°08'4 3.8
2016-Jun-29 20:33N 40°39' W 074°04'1 1.4
2016-Jun-29 19:33N 40°39' W 074°06'4 0.4
2016-Jun-29 11:07N 40°39' W 074°10'1 0.2
2016-Jun-29 07:33N 40°39' W 074°11'1 0.3
2016-Jun-29 04:31N 40°38' W 074°10'0 0.0
2016-Jun-28 12:32N 40°38' W 074°10'0 0.0
2016-Jun-28 10:32N 40°38' W 074°10'0 0.0
2016-Jun-28 09:32N 40°38' W 074°10'0 0.0
2016-Jun-28 07:23N 40°38' W 074°10'0 0.0
2016-Jun-28 04:24N 40°38' W 074°10'0 0.0
2016-Jun-28 03:28N 40°38' W 074°10'2 0.8
2016-Jun-28 01:33N 40°38' W 074°08'0 0.1
2016-Jun-28 00:33N 40°39' W 074°08'2 1.2
2016-Jun-27 23:09N 40°38' W 074°10'3 5.8
2016-Jun-27 22:33N 40°42' W 074°09'3 2.7
2016-Jun-27 21:20N 40°39' W 074°08'4 4.7
2016-Jun-27 20:33N 40°39' W 074°03'1 0.9
2016-Jun-27 19:33N 40°40' W 074°04'0 0.0
2016-Jun-27 18:33N 40°40' W 074°04'0 0.0
2016-Jun-27 17:33N 40°40' W 074°04'0 0.0
2016-Jun-27 16:33N 40°40' W 074°04'0 0.0
2016-Jun-27 15:33N 40°40' W 074°04'0 0.0
2016-Jun-27 14:33N 40°40' W 074°04'1 1.4
2016-Jun-27 13:33N 40°40' W 074°02'8 6.0
2016-Jun-27 12:17N 40°47' W 073°56'11 5.5
2016-Jun-27 10:19N 40°52' W 073°44'3 4.2
2016-Jun-27 09:32N 40°54' W 073°41'4 4.1
2016-Jun-27 08:27N 40°56' W 073°36'3 3.4
2016-Jun-27 07:33N 40°57' W 073°32'4 3.7
2016-Jun-27 06:34N 40°59' W 073°28'8 4.2
2016-Jun-27 04:33N 41°00' W 073°16'4 4.3
2016-Jun-27 03:33N 40°60' W 073°11'5 4.8
2016-Jun-27 02:27N 40°57' W 073°05'37 2.8
2016-Jun-26 13:10N 40°48' W 073°52'4 7.2
2016-Jun-26 12:33N 40°46' W 073°57'6 6.5
2016-Jun-26 11:33N 40°41' W 074°02'1 1.0
2016-Jun-26 10:33N 40°40' W 074°02'0 0.0
2016-Jun-26 09:33N 40°40' W 074°02'0 0.0
2016-Jun-26 08:33N 40°40' W 074°02'0 0.2
2016-Jun-26 07:33N 40°40' W 074°02'7 7.5
2016-Jun-26 06:33N 40°38' W 074°12'0 0.0
2016-Jun-25 16:26N 40°38' W 074°12'7 8.3
2016-Jun-25 15:33N 40°40' W 074°03'2 2.0
2016-Jun-25 14:33N 40°41' W 074°01'4 0.5
2016-Jun-25 06:34N 40°39' W 074°05'6 6.4
2016-Jun-25 05:33N 40°43' W 073°58'4 4.3
2016-Jun-25 04:34N 40°40' W 074°03'6 3.0
2016-Jun-25 02:34N 40°39' W 074°11'3 2.5
2016-Jun-25 01:16N 40°36' W 074°12'3 4.9
2016-Jun-25 00:33N 40°39' W 074°10'1 1.1
2016-Jun-24 23:33N 40°40' W 074°09'0 0.0
2016-Jun-24 22:34N 40°40' W 074°09'0 0.0
2016-Jun-24 21:33N 40°40' W 074°09'0 0.0
2016-Jun-24 20:27N 40°40' W 074°09'0 0.0
2016-Jun-24 19:31N 40°40' W 074°09'0 0.5
2016-Jun-24 18:33N 40°39' W 074°09'2 1.7
2016-Jun-24 17:33N 40°39' W 074°11'3 1.0
2016-Jun-24 14:31N 40°36' W 074°12'0 0.0
2016-Jun-24 13:33N 40°36' W 074°12'0 0.0
2016-Jun-24 12:26N 40°36' W 074°12'0 0.0
2016-Jun-24 11:25N 40°36' W 074°12'0 0.0
2016-Jun-24 10:29N 40°36' W 074°12'0 0.0
2016-Jun-24 09:30N 40°36' W 074°12'0 0.0
2016-Jun-24 08:33N 40°36' W 074°12'0 0.0
2016-Jun-24 07:33N 40°36' W 074°12'0 0.0
2016-Jun-24 06:33N 40°36' W 074°12'0 0.0
2016-Jun-23 22:32N 40°36' W 074°12'0 0.0
2016-Jun-23 21:32N 40°36' W 074°12'3 1.1
2016-Jun-23 19:19N 40°38' W 074°12'2 0.5
2016-Jun-23 16:23N 40°38' W 074°10'4 4.9
2016-Jun-23 15:33N 40°40' W 074°05'0 0.0
2016-Jun-23 14:34N 40°40' W 074°05'0 0.0
2016-Jun-23 13:33N 40°40' W 074°05'0 0.0
2016-Jun-23 12:34N 40°40' W 074°05'0 0.0
2016-Jun-23 11:34N 40°40' W 074°05'0 0.0
2016-Jun-23 10:34N 40°40' W 074°05'0 0.0
2016-Jun-23 09:34N 40°40' W 074°05'0 0.0
2016-Jun-23 08:34N 40°40' W 074°05'2 1.6
2016-Jun-23 07:34N 40°39' W 074°06'5 2.3
2016-Jun-23 05:34N 40°38' W 074°12'0 0.0
2016-Jun-23 02:34N 40°38' W 074°12'3 2.7
2016-Jun-23 01:33N 40°39' W 074°09'2 1.6
2016-Jun-23 00:33N 40°40' W 074°09'1 0.3
2016-Jun-22 22:32N 40°41' W 074°09'1 0.8
2016-Jun-22 21:32N 40°40' W 074°08'2 2.4
2016-Jun-22 20:33N 40°39' W 074°06'0 0.1
2016-Jun-22 19:31N 40°39' W 074°06'0 0.4
2016-Jun-22 18:33N 40°39' W 074°06'2 2.0
2016-Jun-22 17:33N 40°38' W 074°04'5 0.6
2016-Jun-22 10:15N 40°38' W 074°10'4 1.9
2016-Jun-22 08:21N 40°35' W 074°12'4 0.4
2016-Jun-21 23:12N 40°38' W 074°10'1 0.7
2016-Jun-21 22:17N 40°39' W 074°09'1 1.3
2016-Jun-21 21:28N 40°39' W 074°07'3 0.3
2016-Jun-21 11:16N 40°39' W 074°11'1 1.3
2016-Jun-21 10:17N 40°39' W 074°09'5 7.0
2016-Jun-21 09:33N 40°38' W 074°03'5 1.8
2016-Jun-21 06:33N 40°38' W 074°10'0 0.0
2016-Jun-21 03:16N 40°38' W 074°10'0 0.0
2016-Jun-21 01:32N 40°38' W 074°10'0 0.0
2016-Jun-21 00:27N 40°38' W 074°10'0 0.0
2016-Jun-20 22:25N 40°38' W 074°10'2 2.4
2016-Jun-20 21:33N 40°40' W 074°08'0 0.3
2016-Jun-20 20:33N 40°40' W 074°08'0 0.0
2016-Jun-20 19:33N 40°40' W 074°08'0 0.0
2016-Jun-20 18:33N 40°40' W 074°08'0 0.4
2016-Jun-20 17:33N 40°41' W 074°09'2 2.2
2016-Jun-20 16:32N 40°39' W 074°08'1 0.6
2016-Jun-20 14:33N 40°38' W 074°10'0 0.0
2016-Jun-20 13:33N 40°38' W 074°10'0 0.0
2016-Jun-20 12:33N 40°38' W 074°10'0 0.0
2016-Jun-20 11:33N 40°38' W 074°10'1 0.7
2016-Jun-20 10:07N 40°39' W 074°11'1 2.4
2016-Jun-20 09:33N 40°39' W 074°09'3 2.5
2016-Jun-20 08:33N 40°39' W 074°06'3 0.5
2016-Jun-20 03:08N 40°38' W 074°10'0 0.0
2016-Jun-20 02:26N 40°38' W 074°10'0 0.0
2016-Jun-20 00:30N 40°38' W 074°10'0 0.0
2016-Jun-19 23:25N 40°38' W 074°10'  
Track history (hours):
 
Tides and Currents Weather Stations Pressure Air Temp Water Temp Dewpoint Dewpoint Depression Visibility Wind Speed Wind Dir Waves Ship Positions

Amy C. Mc Allister

Owner: MC ALLISTER TOWING & TRANSPORTATION INC, NEW YORK, NY. More information available from US FCC via Universal Licensing System and Coast Guard Vessel Documentation Center.

Last reported at 2016-Jun-29 21:33 UTC. Time now 2016-Jun-29 22:01 UTC.
Position N 40°40' W 074°08'.

; draft 4.9 m.

Type: Towing. MMSI: 366995040.

Date/timePositionNaut miles runAvg speedWind from/ knotsBaromVisibWave heightAir tempDewpointWater temp
2016-Jun-29 21:33N 40°40' W 074°08'4 3.8
2016-Jun-29 20:33N 40°39' W 074°04'1 1.4
2016-Jun-29 19:33N 40°39' W 074°06'4 0.4
2016-Jun-29 11:07N 40°39' W 074°10'1 0.2
2016-Jun-29 07:33N 40°39' W 074°11'1 0.3
2016-Jun-29 04:31N 40°38' W 074°10'0 0.0
2016-Jun-28 12:32N 40°38' W 074°10'0 0.0
2016-Jun-28 10:32N 40°38' W 074°10'0 0.0
2016-Jun-28 09:32N 40°38' W 074°10'0 0.0
2016-Jun-28 07:23N 40°38' W 074°10'0 0.0
2016-Jun-28 04:24N 40°38' W 074°10'0 0.0
2016-Jun-28 03:28N 40°38' W 074°10'2 0.8
2016-Jun-28 01:33N 40°38' W 074°08'0 0.1
2016-Jun-28 00:33N 40°39' W 074°08'2 1.2
2016-Jun-27 23:09N 40°38' W 074°10'3 5.8
2016-Jun-27 22:33N 40°42' W 074°09'3 2.7
2016-Jun-27 21:20N 40°39' W 074°08'4 4.7
2016-Jun-27 20:33N 40°39' W 074°03'1 0.9
2016-Jun-27 19:33N 40°40' W 074°04'0 0.0
2016-Jun-27 18:33N 40°40' W 074°04'0 0.0
2016-Jun-27 17:33N 40°40' W 074°04'0 0.0
2016-Jun-27 16:33N 40°40' W 074°04'0 0.0
2016-Jun-27 15:33N 40°40' W 074°04'0 0.0
2016-Jun-27 14:33N 40°40' W 074°04'1 1.4
2016-Jun-27 13:33N 40°40' W 074°02'8 6.0
2016-Jun-27 12:17N 40°47' W 073°56'11 5.5
2016-Jun-27 10:19N 40°52' W 073°44'3 4.2
2016-Jun-27 09:32N 40°54' W 073°41'4 4.1
2016-Jun-27 08:27N 40°56' W 073°36'3 3.4
2016-Jun-27 07:33N 40°57' W 073°32'4 3.7
2016-Jun-27 06:34N 40°59' W 073°28'8 4.2
2016-Jun-27 04:33N 41°00' W 073°16'4 4.3
2016-Jun-27 03:33N 40°60' W 073°11'5 4.8
2016-Jun-27 02:27N 40°57' W 073°05'37 2.8
2016-Jun-26 13:10N 40°48' W 073°52'4 7.2
2016-Jun-26 12:33N 40°46' W 073°57'6 6.5
2016-Jun-26 11:33N 40°41' W 074°02'1 1.0
2016-Jun-26 10:33N 40°40' W 074°02'0 0.0
2016-Jun-26 09:33N 40°40' W 074°02'0 0.0
2016-Jun-26 08:33N 40°40' W 074°02'0 0.2
2016-Jun-26 07:33N 40°40' W 074°02'7 7.5
2016-Jun-26 06:33N 40°38' W 074°12'0 0.0
2016-Jun-25 16:26N 40°38' W 074°12'7 8.3
2016-Jun-25 15:33N 40°40' W 074°03'2 2.0
2016-Jun-25 14:33N 40°41' W 074°01'4 0.5
2016-Jun-25 06:34N 40°39' W 074°05'6 6.4
2016-Jun-25 05:33N 40°43' W 073°58'4 4.3
2016-Jun-25 04:34N 40°40' W 074°03'6 3.0
2016-Jun-25 02:34N 40°39' W 074°11'3 2.5
2016-Jun-25 01:16N 40°36' W 074°12'3 4.9
2016-Jun-25 00:33N 40°39' W 074°10'1 1.1
2016-Jun-24 23:33N 40°40' W 074°09'0 0.0
2016-Jun-24 22:34N 40°40' W 074°09'0 0.0
2016-Jun-24 21:33N 40°40' W 074°09'0 0.0
2016-Jun-24 20:27N 40°40' W 074°09'0 0.0
2016-Jun-24 19:31N 40°40' W 074°09'0 0.5
2016-Jun-24 18:33N 40°39' W 074°09'2 1.7
2016-Jun-24 17:33N 40°39' W 074°11'3 1.0
2016-Jun-24 14:31N 40°36' W 074°12'0 0.0
2016-Jun-24 13:33N 40°36' W 074°12'0 0.0
2016-Jun-24 12:26N 40°36' W 074°12'0 0.0
2016-Jun-24 11:25N 40°36' W 074°12'0 0.0
2016-Jun-24 10:29N 40°36' W 074°12'0 0.0
2016-Jun-24 09:30N 40°36' W 074°12'0 0.0
2016-Jun-24 08:33N 40°36' W 074°12'0 0.0
2016-Jun-24 07:33N 40°36' W 074°12'0 0.0
2016-Jun-24 06:33N 40°36' W 074°12'0 0.0
2016-Jun-23 22:32N 40°36' W 074°12'0 0.0
2016-Jun-23 21:32N 40°36' W 074°12'3 1.1
2016-Jun-23 19:19N 40°38' W 074°12'2 0.5
2016-Jun-23 16:23N 40°38' W 074°10'4 4.9
2016-Jun-23 15:33N 40°40' W 074°05'0 0.0
2016-Jun-23 14:34N 40°40' W 074°05'0 0.0
2016-Jun-23 13:33N 40°40' W 074°05'0 0.0
2016-Jun-23 12:34N 40°40' W 074°05'0 0.0
2016-Jun-23 11:34N 40°40' W 074°05'0 0.0
2016-Jun-23 10:34N 40°40' W 074°05'0 0.0
2016-Jun-23 09:34N 40°40' W 074°05'0 0.0
2016-Jun-23 08:34N 40°40' W 074°05'2 1.6
2016-Jun-23 07:34N 40°39' W 074°06'5 2.3
2016-Jun-23 05:34N 40°38' W 074°12'0 0.0
2016-Jun-23 02:34N 40°38' W 074°12'3 2.7
2016-Jun-23 01:33N 40°39' W 074°09'2 1.6
2016-Jun-23 00:33N 40°40' W 074°09'1 0.3
2016-Jun-22 22:32N 40°41' W 074°09'1 0.8
2016-Jun-22 21:32N 40°40' W 074°08'2 2.4
2016-Jun-22 20:33N 40°39' W 074°06'0 0.1
2016-Jun-22 19:31N 40°39' W 074°06'0 0.4
2016-Jun-22 18:33N 40°39' W 074°06'2 2.0
2016-Jun-22 17:33N 40°38' W 074°04'5 0.6
2016-Jun-22 10:15N 40°38' W 074°10'4 1.9
2016-Jun-22 08:21N 40°35' W 074°12'4 0.4
2016-Jun-21 23:12N 40°38' W 074°10'1 0.7
2016-Jun-21 22:17N 40°39' W 074°09'1 1.3
2016-Jun-21 21:28N 40°39' W 074°07'3 0.3
2016-Jun-21 11:16N 40°39' W 074°11'1 1.3
2016-Jun-21 10:17N 40°39' W 074°09'5 7.0
2016-Jun-21 09:33N 40°38' W 074°03'5 1.8
2016-Jun-21 06:33N 40°38' W 074°10'0 0.0
2016-Jun-21 03:16N 40°38' W 074°10'0 0.0
2016-Jun-21 01:32N 40°38' W 074°10'0 0.0
2016-Jun-21 00:27N 40°38' W 074°10'0 0.0
2016-Jun-20 22:25N 40°38' W 074°10'2 2.4
2016-Jun-20 21:33N 40°40' W 074°08'0 0.3
2016-Jun-20 20:33N 40°40' W 074°08'0 0.0
2016-Jun-20 19:33N 40°40' W 074°08'0 0.0
2016-Jun-20 18:33N 40°40' W 074°08'0 0.4
2016-Jun-20 17:33N 40°41' W 074°09'2 2.2
2016-Jun-20 16:32N 40°39' W 074°08'1 0.6
2016-Jun-20 14:33N 40°38' W 074°10'0 0.0
2016-Jun-20 13:33N 40°38' W 074°10'0 0.0
2016-Jun-20 12:33N 40°38' W 074°10'0 0.0
2016-Jun-20 11:33N 40°38' W 074°10'1 0.7
2016-Jun-20 10:07N 40°39' W 074°11'1 2.4
2016-Jun-20 09:33N 40°39' W 074°09'3 2.5
2016-Jun-20 08:33N 40°39' W 074°06'3 0.5
2016-Jun-20 03:08N 40°38' W 074°10'0 0.0
2016-Jun-20 02:26N 40°38' W 074°10'0 0.0
2016-Jun-20 00:30N 40°38' W 074°10'0 0.0
2016-Jun-19 23:25N 40°38' W 074°10'  

Dump ship's entire track history